Time;durP1;ratioP1;P1;durP2;ratioP2;P2;SDS_P1;SDS_P2;PMS_P1;PMS_P2;Temp;Humidity;BMP_temperature;BMP_pressure;BME280_temperature;BME280_humidity;BME280_pressure;Samples;Min_cycle;Max_cycle;Signal;HPM_P1;HPM_P2
2023/06/28 00:01:27;;;;;;;5.15;2.13;;;12.90;99.90;;;;;;5054577;28;20415;-58
2023/06/28 00:03:53;;;;;;;3.08;1.88;;;12.80;99.90;;;;;;5066395;28;20436;-58
2023/06/28 00:06:19;;;;;;;2.72;2.20;;;12.80;99.90;;;;;;5056576;28;20101;-59
2023/06/28 00:08:45;;;;;;;2.65;2.30;;;12.80;99.90;;;;;;5034882;28;20095;-59
2023/06/28 00:11:11;;;;;;;3.75;2.38;;;12.80;99.90;;;;;;5058381;28;20133;-60
2023/06/28 00:13:37;;;;;;;4.28;2.40;;;12.80;99.90;;;;;;5058803;28;20107;-59
2023/06/28 00:16:02;;;;;;;3.88;1.80;;;12.80;99.90;;;;;;5035410;28;20027;-60
2023/06/28 00:18:30;;;;;;;4.03;2.28;;;12.70;99.90;;;;;;5057604;28;20032;-59
2023/06/28 00:20:56;;;;;;;5.25;2.67;;;12.70;99.90;;;;;;5055434;28;20023;-58
2023/06/28 00:23:21;;;;;;;2.28;2.03;;;12.70;99.90;;;;;;5062372;28;20481;-60
2023/06/28 00:25:47;;;;;;;7.47;2.63;;;12.70;99.90;;;;;;5039579;28;20021;-59
2023/06/28 00:28:14;;;;;;;2.72;2.03;;;12.60;99.90;;;;;;5055329;28;20037;-59
2023/06/28 00:30:39;;;;;;;4.35;2.30;;;12.60;99.90;;;;;;5061607;28;20120;-59
2023/06/28 00:33:05;;;;;;;7.47;1.95;;;12.60;99.90;;;;;;5044910;28;20107;-59
2023/06/28 00:35:30;;;;;;;3.92;2.58;;;12.60;99.90;;;;;;5028183;28;20032;-57
2023/06/28 00:37:56;;;;;;;3.33;2.20;;;12.60;99.90;;;;;;5049179;28;20032;-60
2023/06/28 00:40:21;;;;;;;2.95;2.00;;;12.50;99.90;;;;;;5058842;28;20082;-59
2023/06/28 00:42:47;;;;;;;5.30;2.33;;;12.50;99.90;;;;;;5057024;28;20021;-59
2023/06/28 00:45:13;;;;;;;4.55;2.30;;;12.50;99.90;;;;;;5061078;28;20029;-60
2023/06/28 00:47:41;;;;;;;3.10;2.42;;;12.50;99.90;;;;;;5062758;28;20457;-59
2023/06/28 00:50:07;;;;;;;1.98;1.65;;;12.50;99.90;;;;;;5056909;28;20584;-58
2023/06/28 00:52:33;;;;;;;6.40;2.47;;;12.50;99.90;;;;;;5054864;28;20025;-60
2023/06/28 00:55:00;;;;;;;2.80;1.80;;;12.40;99.90;;;;;;5055300;28;20110;-60
2023/06/28 00:57:26;;;;;;;2.92;2.10;;;12.40;99.90;;;;;;5042899;28;20013;-58
2023/06/28 00:59:52;;;;;;;3.13;2.38;;;12.40;99.90;;;;;;5059636;28;20039;-58
2023/06/28 01:02:18;;;;;;;6.32;2.60;;;12.40;99.90;;;;;;5053860;28;20040;-58
2023/06/28 01:04:44;;;;;;;6.50;2.55;;;12.30;99.90;;;;;;5063073;28;20024;-59
2023/06/28 01:07:11;;;;;;;4.30;2.45;;;12.40;99.90;;;;;;5056413;28;20021;-59
2023/06/28 01:09:37;;;;;;;2.75;2.55;;;12.30;99.90;;;;;;5064465;28;20028;-59
2023/06/28 01:12:04;;;;;;;3.30;2.42;;;12.30;99.90;;;;;;5059356;28;20013;-59
2023/06/28 01:14:30;;;;;;;5.93;2.67;;;12.30;99.90;;;;;;5057485;28;20108;-58
2023/06/28 01:16:56;;;;;;;3.95;2.58;;;12.30;99.90;;;;;;5067330;28;20080;-59
2023/06/28 01:19:23;;;;;;;5.85;2.72;;;12.20;99.90;;;;;;5059757;28;20157;-58
2023/06/28 01:21:51;;;;;;;6.90;3.17;;;12.20;99.90;;;;;;5060785;28;20017;-59
2023/06/28 01:24:16;;;;;;;4.90;3.08;;;12.20;99.90;;;;;;5061289;28;20639;-58
2023/06/28 01:26:42;;;;;;;3.78;2.67;;;12.20;99.90;;;;;;5052154;28;20033;-58
2023/06/28 01:29:08;;;;;;;3.67;2.60;;;12.20;99.90;;;;;;5049761;28;20099;-57
2023/06/28 01:31:39;;;;;;;3.65;2.72;;;12.10;99.90;;;;;;5050305;28;20540;-59
2023/06/28 01:34:04;;;;;;;3.22;2.33;;;12.10;99.90;;;;;;5057566;28;20103;-57
2023/06/28 01:36:30;;;;;;;3.80;2.58;;;12.10;99.90;;;;;;5053129;28;20112;-59
2023/06/28 01:38:57;;;;;;;4.35;3.20;;;12.10;99.90;;;;;;5047998;28;20120;-59
2023/06/28 01:41:23;;;;;;;6.03;2.92;;;12.00;99.90;;;;;;5056838;28;20052;-57
2023/06/28 01:43:48;;;;;;;3.38;2.50;;;12.10;99.90;;;;;;5058781;28;20033;-60
2023/06/28 01:46:14;;;;;;;5.90;3.03;;;12.00;99.90;;;;;;5053615;28;20112;-57
2023/06/28 01:48:40;;;;;;;3.40;2.47;;;12.00;99.90;;;;;;5060016;28;20028;-59
2023/06/28 01:51:06;;;;;;;3.38;3.08;;;12.00;99.90;;;;;;5044436;28;20491;-59
2023/06/28 01:53:32;;;;;;;3.10;2.83;;;12.00;99.90;;;;;;5048692;28;20108;-58
2023/06/28 01:55:58;;;;;;;4.90;2.58;;;12.00;99.90;;;;;;5046735;28;20589;-59
2023/06/28 01:58:23;;;;;;;9.60;2.88;;;11.90;99.90;;;;;;5058843;28;20033;-59
2023/06/28 02:00:49;;;;;;;5.95;3.00;;;11.90;99.90;;;;;;5066980;28;20040;-59
2023/06/28 02:03:14;;;;;;;3.75;2.70;;;11.90;99.90;;;;;;5058606;28;20067;-59
2023/06/28 02:05:40;;;;;;;5.40;2.75;;;11.90;99.90;;;;;;5062407;28;20025;-58
2023/06/28 02:08:06;;;;;;;4.90;3.28;;;11.90;99.90;;;;;;5062650;28;20021;-57
2023/06/28 02:10:31;;;;;;;5.25;3.00;;;11.90;99.90;;;;;;5063218;28;20025;-57
2023/06/28 02:12:57;;;;;;;5.10;2.80;;;11.90;99.90;;;;;;5067762;28;20037;-56
2023/06/28 02:15:24;;;;;;;2.47;2.25;;;11.90;99.90;;;;;;5062994;28;20039;-56
2023/06/28 02:17:49;;;;;;;4.18;3.42;;;11.90;99.90;;;;;;5044700;28;20019;-59
2023/06/28 02:20:15;;;;;;;3.28;2.60;;;11.90;99.90;;;;;;5064009;28;20032;-59
2023/06/28 02:22:40;;;;;;;3.70;2.70;;;11.90;99.90;;;;;;5063279;28;20021;-58
2023/06/28 02:25:06;;;;;;;4.60;2.53;;;11.90;99.90;;;;;;5036075;28;20415;-58
2023/06/28 02:27:35;;;;;;;4.15;2.53;;;11.90;99.90;;;;;;5062392;28;20028;-56
2023/06/28 02:30:00;;;;;;;6.20;3.13;;;11.90;99.90;;;;;;5055127;28;20020;-57
2023/06/28 02:32:30;;;;;;;4.07;3.03;;;11.90;99.90;;;;;;5064736;28;20214;-57
2023/06/28 02:34:56;;;;;;;2.58;2.30;;;11.90;99.90;;;;;;5055191;28;20021;-56
2023/06/28 02:37:21;;;;;;;3.80;2.65;;;11.90;99.90;;;;;;5059493;28;20035;-59
2023/06/28 02:39:47;;;;;;;7.32;2.47;;;11.90;99.90;;;;;;5064100;28;20380;-59
2023/06/28 02:42:12;;;;;;;4.00;2.97;;;11.90;99.90;;;;;;5060116;28;20030;-56
2023/06/28 02:44:38;;;;;;;5.72;3.00;;;11.90;99.90;;;;;;5062392;28;20032;-57
2023/06/28 02:47:04;;;;;;;5.32;2.70;;;11.90;99.90;;;;;;5056040;28;20037;-58
2023/06/28 02:49:29;;;;;;;5.38;3.15;;;11.90;99.90;;;;;;5055295;28;20083;-57
2023/06/28 02:51:55;;;;;;;5.05;2.70;;;11.90;99.90;;;;;;5053113;28;20490;-58
2023/06/28 02:54:20;;;;;;;5.55;3.00;;;12.00;99.90;;;;;;5053942;28;20033;-56
2023/06/28 02:56:46;;;;;;;8.48;3.40;;;12.00;99.90;;;;;;5050069;28;20025;-56
2023/06/28 02:59:11;;;;;;;8.43;3.47;;;12.00;99.90;;;;;;5049963;28;20028;-56
2023/06/28 03:01:37;;;;;;;5.63;2.85;;;12.00;99.90;;;;;;5034374;28;20042;-55
2023/06/28 03:04:02;;;;;;;5.05;3.35;;;12.00;99.90;;;;;;5056109;28;20029;-59
2023/06/28 03:06:28;;;;;;;4.68;3.55;;;12.00;99.90;;;;;;5061804;28;20044;-57
2023/06/28 03:08:53;;;;;;;3.97;2.92;;;12.00;99.90;;;;;;5059527;28;20471;-58
2023/06/28 03:11:19;;;;;;;4.28;3.70;;;12.00;99.90;;;;;;5052082;28;20138;-60
2023/06/28 03:13:45;;;;;;;4.38;3.30;;;12.00;99.90;;;;;;5059779;28;20028;-58
2023/06/28 03:16:10;;;;;;;7.68;3.45;;;12.10;99.90;;;;;;5029721;28;20036;-57
2023/06/28 03:18:36;;;;;;;6.35;3.67;;;12.10;99.90;;;;;;5061453;28;20025;-57
2023/06/28 03:21:02;;;;;;;4.47;3.72;;;12.10;99.90;;;;;;5059374;28;20048;-59
2023/06/28 03:23:27;;;;;;;7.10;4.45;;;12.20;99.90;;;;;;5059502;28;20134;-58
2023/06/28 03:25:53;;;;;;;5.65;3.60;;;12.20;99.90;;;;;;5055063;28;20028;-57
2023/06/28 03:28:18;;;;;;;6.57;3.55;;;12.20;99.90;;;;;;5049013;28;20029;-57
2023/06/28 03:30:44;;;;;;;4.60;3.88;;;12.20;99.90;;;;;;5059547;28;20725;-57
2023/06/28 03:33:10;;;;;;;5.60;3.38;;;12.20;99.90;;;;;;5049097;28;20025;-60
2023/06/28 03:35:36;;;;;;;6.88;3.55;;;12.30;99.90;;;;;;5060439;28;20115;-60
2023/06/28 03:38:01;;;;;;;5.55;3.90;;;12.20;99.90;;;;;;5039327;28;20020;-59
2023/06/28 03:40:29;;;;;;;5.30;3.35;;;12.30;99.90;;;;;;5059471;28;20036;-59
2023/06/28 03:42:54;;;;;;;7.22;4.05;;;12.30;99.90;;;;;;5055785;28;20100;-58
2023/06/28 03:45:20;;;;;;;6.80;3.95;;;12.30;99.90;;;;;;5056220;28;20173;-59
2023/06/28 03:47:47;;;;;;;9.10;4.35;;;12.30;99.90;;;;;;5057039;28;20032;-59
2023/06/28 03:50:13;;;;;;;6.32;3.92;;;12.30;99.90;;;;;;5048121;28;20029;-60
2023/06/28 03:52:39;;;;;;;7.78;4.13;;;12.40;99.90;;;;;;5056094;28;20038;-59
2023/06/28 03:55:06;;;;;;;5.97;3.85;;;12.40;99.90;;;;;;5047640;28;20403;-59
2023/06/28 03:57:32;;;;;;;6.63;3.42;;;12.40;99.90;;;;;;5050036;28;20572;-60
2023/06/28 03:59:58;;;;;;;8.00;3.75;;;12.40;99.90;;;;;;5047088;28;20025;-59
2023/06/28 04:02:23;;;;;;;6.43;3.47;;;12.40;99.90;;;;;;5050764;28;20032;-58
2023/06/28 04:04:49;;;;;;;8.00;3.60;;;12.50;99.90;;;;;;5058684;28;20025;-60
2023/06/28 04:07:15;;;;;;;5.95;3.65;;;12.50;99.90;;;;;;5059467;28;20557;-60
2023/06/28 04:09:42;;;;;;;5.57;4.05;;;12.50;99.90;;;;;;5059355;28;20024;-60
2023/06/28 04:12:08;;;;;;;6.70;3.70;;;12.60;99.90;;;;;;5057156;28;20469;-59
2023/06/28 04:14:33;;;;;;;11.18;3.80;;;12.60;99.90;;;;;;5056455;28;20127;-58
2023/06/28 04:16:59;;;;;;;5.70;3.75;;;12.60;99.90;;;;;;5044888;28;20059;-59
2023/06/28 04:19:24;;;;;;;6.70;4.13;;;12.60;99.90;;;;;;5058073;28;20028;-60
2023/06/28 04:21:50;;;;;;;6.97;4.35;;;12.70;99.90;;;;;;5064396;28;20035;-59
2023/06/28 04:24:15;;;;;;;6.03;3.75;;;12.70;99.90;;;;;;5056744;28;20025;-59
2023/06/28 04:26:41;;;;;;;5.47;3.45;;;12.70;99.90;;;;;;5055175;28;20032;-59
2023/06/28 04:29:07;;;;;;;6.53;3.85;;;12.80;99.90;;;;;;5053184;28;20032;-59
2023/06/28 04:31:34;;;;;;;4.10;3.45;;;12.80;99.90;;;;;;5054821;28;20083;-58
2023/06/28 04:33:59;;;;;;;6.85;4.32;;;12.90;99.90;;;;;;5042735;28;20032;-59
2023/06/28 04:36:25;;;;;;;7.72;3.72;;;12.90;99.90;;;;;;5055975;28;20382;-59
2023/06/28 04:38:54;;;;;;;12.18;4.40;;;12.90;99.90;;;;;;5066834;28;20036;-59
2023/06/28 04:41:27;;;;;;;7.72;3.83;;;13.00;99.90;;;;;;5052850;28;20067;-59
2023/06/28 04:43:57;;;;;;;7.25;4.22;;;13.00;99.90;;;;;;5057549;28;20151;-58
2023/06/28 04:46:26;;;;;;;5.88;4.35;;;13.10;99.90;;;;;;5060813;28;20367;-59
2023/06/28 04:48:53;;;;;;;7.35;3.70;;;13.20;99.90;;;;;;5059801;28;20410;-59
2023/06/28 04:51:21;;;;;;;10.77;4.43;;;13.20;99.90;;;;;;5059120;28;20025;-59
2023/06/28 04:53:48;;;;;;;7.63;4.25;;;13.30;99.90;;;;;;5059254;28;20185;-60
2023/06/28 04:56:17;;;;;;;11.98;5.18;;;13.30;99.90;;;;;;5043456;28;20032;-59
2023/06/28 04:58:43;;;;;;;11.00;4.55;;;13.40;99.90;;;;;;5058176;28;20036;-60
2023/06/28 05:01:09;;;;;;;10.50;4.00;;;13.40;99.90;;;;;;5052237;28;20398;-59
2023/06/28 05:03:35;;;;;;;7.93;4.40;;;13.60;99.90;;;;;;5059069;28;20486;-58
2023/06/28 05:06:08;;;;;;;8.93;4.15;;;13.60;99.90;;;;;;5061726;28;20849;-57
2023/06/28 05:08:34;;;;;;;9.70;3.80;;;13.70;99.90;;;;;;5059145;28;20029;-59
2023/06/28 05:11:01;;;;;;;6.68;4.00;;;13.80;99.90;;;;;;5044765;28;20028;-60
2023/06/28 05:13:27;;;;;;;10.27;4.18;;;13.80;99.90;;;;;;5059769;28;20124;-60
2023/06/28 05:15:52;;;;;;;11.40;4.70;;;13.90;99.90;;;;;;5034092;28;20101;-59
2023/06/28 05:18:18;;;;;;;11.43;5.38;;;14.00;99.90;;;;;;5058713;28;20457;-61
2023/06/28 05:20:44;;;;;;;11.65;4.03;;;14.10;99.90;;;;;;5060827;28;20506;-60
2023/06/28 05:23:12;;;;;;;8.15;4.18;;;14.20;99.90;;;;;;5060420;28;20108;-59
2023/06/28 05:25:39;;;;;;;5.85;3.55;;;14.30;99.90;;;;;;5059779;28;20025;-61
2023/06/28 05:28:06;;;;;;;7.35;3.50;;;14.30;99.90;;;;;;5035738;28;20040;-61
2023/06/28 05:30:32;;;;;;;5.05;3.55;;;14.40;99.90;;;;;;5023456;28;20028;-61
2023/06/28 05:32:58;;;;;;;8.93;4.55;;;14.50;99.90;;;;;;5058964;28;20021;-61
2023/06/28 05:35:24;;;;;;;8.43;3.28;;;14.60;99.90;;;;;;5049306;28;20025;-60
2023/06/28 05:37:50;;;;;;;7.07;3.10;;;14.70;99.90;;;;;;5064688;28;20024;-61
2023/06/28 05:40:15;;;;;;;10.02;3.42;;;14.80;99.90;;;;;;5068030;28;20034;-62
2023/06/28 05:42:41;;;;;;;8.18;3.50;;;14.90;99.90;;;;;;5063922;28;20390;-60
2023/06/28 05:45:08;;;;;;;7.05;2.92;;;15.00;99.90;;;;;;5042237;28;20120;-61
2023/06/28 05:47:33;;;;;;;10.25;3.58;;;15.10;99.90;;;;;;5055167;28;20028;-62
2023/06/28 05:49:59;;;;;;;6.38;3.10;;;15.30;99.90;;;;;;5051936;28;20029;-61
2023/06/28 05:52:24;;;;;;;6.60;2.78;;;15.40;99.90;;;;;;5050841;28;20088;-60
2023/06/28 05:54:50;;;;;;;5.75;2.65;;;15.60;99.90;;;;;;5064010;28;20020;-62
2023/06/28 05:57:16;;;;;;;7.90;2.88;;;15.70;99.90;;;;;;5061310;28;20033;-61
2023/06/28 05:59:41;;;;;;;6.72;2.63;;;15.80;99.90;;;;;;5062594;28;20027;-61
2023/06/28 06:02:07;;;;;;;6.88;2.63;;;16.00;99.90;;;;;;5057463;28;20021;-62
2023/06/28 06:04:33;;;;;;;5.95;2.38;;;16.10;99.90;;;;;;5040468;28;20024;-62
2023/06/28 06:06:58;;;;;;;8.35;2.72;;;16.30;99.90;;;;;;5043647;28;20119;-62
2023/06/28 06:09:24;;;;;;;5.93;2.70;;;16.50;99.90;;;;;;5036631;28;20032;-62
2023/06/28 06:11:49;;;;;;;2.50;2.30;;;16.60;99.90;;;;;;5066501;28;20016;-63
2023/06/28 06:14:15;;;;;;;3.05;1.95;;;16.70;99.90;;;;;;5055607;28;20070;-62
2023/06/28 06:16:41;;;;;;;6.75;2.25;;;16.90;99.90;;;;;;5049479;28;20024;-61
2023/06/28 06:19:07;;;;;;;5.95;2.03;;;17.00;99.90;;;;;;5043798;28;20025;-64
2023/06/28 06:21:32;;;;;;;4.00;1.83;;;17.10;99.90;;;;;;5051675;28;20030;-62
2023/06/28 06:23:59;;;;;;;3.85;1.70;;;17.10;99.90;;;;;;5063571;28;20347;-57
2023/06/28 06:26:25;;;;;;;4.97;1.80;;;17.20;99.90;;;;;;5037347;28;20029;-60
2023/06/28 06:28:50;;;;;;;5.70;1.90;;;17.30;99.90;;;;;;5056347;28;20036;-60
2023/06/28 06:31:16;;;;;;;6.38;1.73;;;17.50;99.90;;;;;;5059528;28;20115;-61
2023/06/28 06:33:42;;;;;;;4.70;1.75;;;17.70;99.90;;;;;;5046040;28;20052;-59
2023/06/28 06:36:07;;;;;;;7.32;2.05;;;17.70;99.90;;;;;;5062481;28;20025;-61
2023/06/28 06:38:33;;;;;;;4.55;1.50;;;17.80;99.90;;;;;;5065518;28;20403;-58
2023/06/28 06:40:58;;;;;;;4.53;1.65;;;17.90;99.90;;;;;;5065407;28;20028;-58
2023/06/28 06:43:24;;;;;;;4.13;1.88;;;18.10;99.90;;;;;;5054684;28;20497;-58
2023/06/28 06:45:49;;;;;;;4.10;1.63;;;18.20;99.90;;;;;;5067823;28;20475;-59
2023/06/28 06:48:15;;;;;;;5.28;1.70;;;18.20;99.90;;;;;;5041351;28;20060;-58
2023/06/28 06:50:40;;;;;;;3.67;1.90;;;18.20;99.90;;;;;;5067535;28;20433;-59
2023/06/28 06:53:07;;;;;;;3.75;1.60;;;18.20;99.90;;;;;;5058058;28;20044;-61
2023/06/28 06:55:33;;;;;;;4.38;1.70;;;18.30;99.90;;;;;;5066960;28;20498;-59
2023/06/28 06:57:58;;;;;;;3.50;1.50;;;18.20;99.90;;;;;;5062749;28;20029;-58
2023/06/28 07:00:24;;;;;;;8.88;2.42;;;18.20;99.90;;;;;;5044586;28;20081;-58
2023/06/28 07:02:49;;;;;;;4.57;1.67;;;18.20;99.90;;;;;;5065750;28;20024;-59
2023/06/28 07:05:15;;;;;;;3.55;1.35;;;18.40;99.90;;;;;;5057914;28;20093;-59
2023/06/28 07:07:42;;;;;;;8.73;1.83;;;18.60;99.90;;;;;;5062893;28;20024;-58
2023/06/28 07:10:07;;;;;;;4.93;1.67;;;18.90;99.90;;;;;;5054867;28;20097;-57
2023/06/28 07:12:34;;;;;;;7.53;1.98;;;19.10;99.90;;;;;;5060748;28;20095;-58
2023/06/28 07:15:00;;;;;;;6.10;1.60;;;19.30;99.90;;;;;;5048660;28;20032;-58
2023/06/28 07:17:25;;;;;;;8.35;2.10;;;19.20;99.90;;;;;;5051929;28;20033;-58
2023/06/28 07:19:51;;;;;;;8.27;1.77;;;19.40;99.90;;;;;;5053224;28;20455;-59
2023/06/28 07:22:16;;;;;;;4.85;1.63;;;19.50;99.90;;;;;;5067339;28;20020;-57
2023/06/28 07:24:42;;;;;;;1.45;1.17;;;19.70;99.90;;;;;;5058568;28;20114;-58
2023/06/28 07:27:07;;;;;;;4.07;1.42;;;19.70;99.90;;;;;;5061693;28;20028;-59
2023/06/28 07:29:33;;;;;;;6.28;1.75;;;19.80;99.90;;;;;;5055743;28;20028;-58
2023/06/28 07:31:59;;;;;;;3.72;1.70;;;19.90;99.90;;;;;;5061591;28;20075;-58
2023/06/28 07:34:24;;;;;;;3.58;1.25;;;19.70;99.90;;;;;;5059968;28;20025;-60
2023/06/28 07:36:50;;;;;;;6.05;1.73;;;19.60;99.90;;;;;;5062897;28;20050;-59
2023/06/28 07:39:15;;;;;;;5.80;1.38;;;19.50;99.90;;;;;;5064485;28;20431;-57
2023/06/28 07:41:41;;;;;;;6.03;1.77;;;19.50;99.90;;;;;;5062522;28;20593;-59
2023/06/28 07:44:06;;;;;;;3.42;1.77;;;19.70;99.90;;;;;;5061004;28;20032;-58
2023/06/28 07:46:32;;;;;;;4.32;1.42;;;19.90;99.90;;;;;;5061780;28;20032;-59
2023/06/28 07:48:59;;;;;;;6.55;1.35;;;20.20;99.90;;;;;;5037285;28;20028;-57
2023/06/28 07:51:25;;;;;;;6.05;1.65;;;20.30;99.90;;;;;;5052292;28;20094;-59
2023/06/28 07:53:51;;;;;;;5.72;1.55;;;20.20;99.90;;;;;;5037711;28;20029;-59
2023/06/28 07:56:17;;;;;;;3.47;1.40;;;20.10;99.90;;;;;;5059524;28;20089;-59
2023/06/28 07:58:43;;;;;;;3.90;1.88;;;19.90;99.90;;;;;;5042434;28;20017;-61
2023/06/28 08:01:08;;;;;;;3.40;1.83;;;19.80;99.90;;;;;;5053646;28;20037;-58
2023/06/28 08:03:34;;;;;;;3.35;1.35;;;19.70;99.90;;;;;;5058504;28;20017;-60
2023/06/28 08:06:00;;;;;;;2.83;1.77;;;19.70;99.90;;;;;;5058706;28;20079;-60
2023/06/28 08:08:25;;;;;;;3.80;1.85;;;19.70;99.90;;;;;;5050866;28;20415;-60
2023/06/28 08:10:51;;;;;;;6.10;1.50;;;19.80;99.90;;;;;;5051434;28;20390;-58
2023/06/28 08:13:16;;;;;;;2.67;1.50;;;19.90;99.90;;;;;;5063555;28;20475;-59
2023/06/28 08:15:42;;;;;;;4.28;1.63;;;20.10;99.90;;;;;;5058686;28;20487;-60
2023/06/28 08:18:09;;;;;;;7.50;1.60;;;20.30;99.90;;;;;;5064721;28;20021;-59
2023/06/28 08:20:35;;;;;;;3.70;1.60;;;20.60;99.90;;;;;;5061198;28;20020;-58
2023/06/28 08:23:02;;;;;;;3.00;1.90;;;20.80;99.90;;;;;;5057122;28;20689;-56
2023/06/28 08:25:28;;;;;;;4.18;1.80;;;20.90;99.90;;;;;;5051130;28;20473;-59
2023/06/28 08:27:53;;;;;;;2.15;1.33;;;20.70;99.90;;;;;;5044164;28;20071;-59
2023/06/28 08:30:19;;;;;;;3.05;1.65;;;20.70;99.90;;;;;;5049885;28;20025;-59
2023/06/28 08:32:45;;;;;;;7.60;2.03;;;20.80;99.90;;;;;;5044241;28;20024;-60
2023/06/28 08:35:11;;;;;;;3.60;1.70;;;20.90;99.90;;;;;;5047901;28;20044;-60
2023/06/28 08:37:36;;;;;;;4.85;1.50;;;20.80;99.90;;;;;;5048232;28;20492;-59
2023/06/28 08:40:04;;;;;;;5.30;1.60;;;20.70;99.90;;;;;;5050746;28;20364;-60
2023/06/28 08:42:33;;;;;;;3.80;1.73;;;20.60;99.90;;;;;;5044456;28;20104;-58
2023/06/28 08:45:03;;;;;;;4.63;1.45;;;20.30;99.90;;;;;;5045374;28;20033;-59
2023/06/28 08:47:32;;;;;;;5.65;1.80;;;20.40;99.90;;;;;;5050391;28;20487;-60
2023/06/28 08:49:58;;;;;;;5.47;1.60;;;20.60;99.90;;;;;;5050986;28;20040;-57
2023/06/28 08:52:26;;;;;;;4.10;1.70;;;20.90;99.90;;;;;;5049714;28;20048;-58
2023/06/28 08:54:52;;;;;;;3.78;1.40;;;21.10;99.90;;;;;;5043883;28;20371;-59
2023/06/28 08:57:18;;;;;;;3.38;1.50;;;21.30;99.90;;;;;;5032779;28;20024;-59
2023/06/28 08:59:44;;;;;;;5.10;1.52;;;21.30;99.90;;;;;;5030060;28;20059;-60
2023/06/28 09:02:17;;;;;;;2.00;1.73;;;21.50;99.90;;;;;;5049910;28;20037;-60
2023/06/28 09:04:44;;;;;;;2.95;1.50;;;21.50;99.90;;;;;;5048331;28;20013;-59
2023/06/28 09:07:12;;;;;;;2.03;1.35;;;21.40;99.90;;;;;;5049287;28;20025;-60
2023/06/28 09:09:41;;;;;;;2.97;1.75;;;21.40;99.90;;;;;;5043631;28;20018;-59
2023/06/28 09:12:08;;;;;;;3.38;1.23;;;21.60;99.90;;;;;;5047623;28;20040;-59
2023/06/28 09:14:33;;;;;;;3.15;1.55;;;21.80;99.90;;;;;;5049053;28;20049;-60
2023/06/28 09:17:00;;;;;;;2.55;1.60;;;21.90;99.90;;;;;;5045498;28;20079;-60
2023/06/28 09:19:26;;;;;;;3.55;1.40;;;21.80;99.90;;;;;;5054936;28;20398;-60
2023/06/28 09:21:51;;;;;;;4.28;1.80;;;21.60;99.90;;;;;;5050826;28;20597;-60
2023/06/28 09:24:17;;;;;;;4.85;1.73;;;21.60;99.90;;;;;;5039476;28;20056;-59
2023/06/28 09:26:43;;;;;;;4.65;1.80;;;21.60;99.90;;;;;;5054240;28;20032;-60
2023/06/28 09:29:12;;;;;;;4.28;1.95;;;21.70;99.90;;;;;;5051026;28;20111;-58
2023/06/28 09:31:42;;;;;;;3.17;1.42;;;22.00;99.90;;;;;;5054696;28;20509;-60
2023/06/28 09:34:08;;;;;;;4.38;1.63;;;22.20;99.90;;;;;;5046974;28;20065;-61
2023/06/28 09:36:37;;;;;;;6.22;1.90;;;22.30;99.90;;;;;;5047539;28;20079;-60
2023/06/28 09:39:04;;;;;;;5.60;1.77;;;22.30;99.90;;;;;;5050444;28;20111;-60
2023/06/28 09:41:40;;;;;;;4.32;1.80;;;22.00;99.90;;;;;;5045620;28;20535;-59
2023/06/28 09:44:09;;;;;;;5.38;1.67;;;21.80;99.90;;;;;;5046986;28;20063;-59
2023/06/28 09:46:35;;;;;;;4.45;1.70;;;21.70;99.90;;;;;;5053686;28;20035;-59
2023/06/28 09:49:00;;;;;;;3.10;1.80;;;21.70;99.90;;;;;;5059869;28;20383;-60
2023/06/28 09:51:27;;;;;;;5.38;2.15;;;21.60;99.90;;;;;;5052998;28;20099;-61
2023/06/28 09:53:54;;;;;;;3.05;1.90;;;21.60;99.90;;;;;;5052825;28;20441;-61
2023/06/28 09:56:20;;;;;;;6.68;1.70;;;21.30;99.90;;;;;;5050527;28;20025;-61
2023/06/28 09:58:47;;;;;;;6.30;1.95;;;21.30;99.90;;;;;;5061052;28;20378;-59
2023/06/28 10:01:17;;;;;;;4.28;1.85;;;21.30;99.90;;;;;;5050533;28;20029;-59
2023/06/28 10:03:44;;;;;;;2.85;1.70;;;21.30;99.90;;;;;;5061086;28;20024;-59
2023/06/28 10:06:10;;;;;;;4.18;2.30;;;21.40;99.90;;;;;;5058238;28;20668;-61
2023/06/28 10:08:37;;;;;;;3.88;1.85;;;21.60;99.90;;;;;;5055665;28;20100;-61
2023/06/28 10:11:12;;;;;;;8.35;2.30;;;21.70;99.90;;;;;;5055579;28;20096;-60
2023/06/28 10:13:40;;;;;;;3.92;1.77;;;21.70;99.90;;;;;;5059347;28;20032;-60
2023/06/28 10:16:11;;;;;;;7.13;2.15;;;21.70;99.90;;;;;;5056548;28;20463;-60
2023/06/28 10:18:38;;;;;;;5.45;2.25;;;21.70;99.90;;;;;;5062918;28;20040;-59
2023/06/28 10:21:06;;;;;;;5.70;1.83;;;21.70;99.90;;;;;;5055782;28;20020;-61
2023/06/28 10:23:35;;;;;;;4.80;1.90;;;21.70;99.90;;;;;;5040737;28;20014;-59
2023/06/28 10:26:05;;;;;;;3.22;1.48;;;21.50;99.90;;;;;;5058222;28;20032;-60
2023/06/28 10:28:35;;;;;;;4.68;1.80;;;21.40;99.90;;;;;;5055209;28;20018;-58
2023/06/28 10:31:02;;;;;;;4.20;2.15;;;21.60;99.90;;;;;;5061283;28;20032;-59
2023/06/28 10:33:32;;;;;;;4.00;1.80;;;21.70;99.90;;;;;;5066237;28;20077;-59
2023/06/28 10:36:00;;;;;;;6.18;2.47;;;21.80;99.90;;;;;;5045527;28;20051;-60
2023/06/28 10:38:31;;;;;;;4.13;1.73;;;21.90;99.90;;;;;;5061785;28;20028;-61
2023/06/28 10:40:57;;;;;;;5.65;1.70;;;22.10;99.90;;;;;;5064282;28;20024;-61
2023/06/28 10:43:23;;;;;;;4.50;2.17;;;22.20;99.90;;;;;;5058963;28;20017;-62
2023/06/28 10:45:50;;;;;;;3.97;1.63;;;22.10;99.90;;;;;;5049948;28;20375;-61
2023/06/28 10:48:23;;;;;;;3.63;1.80;;;22.00;99.90;;;;;;5041477;28;20025;-60
2023/06/28 10:50:50;;;;;;;2.65;1.60;;;21.90;99.90;;;;;;5068463;28;20020;-61
2023/06/28 10:53:26;;;;;;;5.20;1.60;;;21.90;99.90;;;;;;5051028;28;20407;-61
2023/06/28 10:56:13;;;;;;;2.08;1.70;;;22.00;99.90;;;;;;5048789;28;20502;-60
2023/06/28 10:58:38;;;;;;;3.47;1.83;;;22.10;99.90;;;;;;5053213;28;20024;-61
2023/06/28 11:01:06;;;;;;;1.75;1.20;;;22.20;99.90;;;;;;5055728;28;20039;-59
2023/06/28 11:03:44;;;;;;;4.07;1.35;;;22.20;99.90;;;;;;5055669;28;20013;-62
2023/06/28 11:06:13;;;;;;;4.70;1.23;;;22.40;99.90;;;;;;5048264;28;20325;-60
2023/06/28 11:08:41;;;;;;;3.90;1.50;;;22.50;99.90;;;;;;5060603;28;20036;-60
2023/06/28 11:11:09;;;;;;;2.17;1.10;;;22.60;99.90;;;;;;5061951;28;20117;-60
2023/06/28 11:13:42;;;;;;;2.65;1.45;;;22.60;99.90;;;;;;5062684;28;20035;-58
2023/06/28 11:16:13;;;;;;;5.90;1.65;;;22.50;99.40;;;;;;5061797;28;20035;-61
2023/06/28 11:18:38;;;;;;;3.00;1.38;;;22.30;99.00;;;;;;5064195;28;20028;-59
2023/06/28 11:21:05;;;;;;;2.92;1.50;;;22.10;99.00;;;;;;5062099;28;20430;-61
2023/06/28 11:23:39;;;;;;;3.35;1.00;;;22.00;99.30;;;;;;5064780;28;20086;-61
2023/06/28 11:26:06;;;;;;;2.38;1.50;;;22.00;99.90;;;;;;5058426;28;20047;-61
2023/06/28 11:28:33;;;;;;;2.40;1.20;;;22.10;99.00;;;;;;5051431;28;20033;-59
2023/06/28 11:31:12;;;;;;;2.80;1.77;;;22.20;99.90;;;;;;5060141;28;20036;-58
2023/06/28 11:33:38;;;;;;;3.42;1.75;;;22.10;99.60;;;;;;5064464;28;20043;-60
2023/06/28 11:36:04;;;;;;;3.42;1.55;;;21.90;98.60;;;;;;5061488;28;20082;-58
2023/06/28 11:38:32;;;;;;;2.83;1.15;;;21.80;99.40;;;;;;5064309;28;20649;-61
2023/06/28 11:40:58;;;;;;;2.80;1.20;;;21.80;99.90;;;;;;5063897;28;20035;-61
2023/06/28 11:43:24;;;;;;;2.40;1.50;;;22.00;99.90;;;;;;5055661;28;20836;-60
2023/06/28 11:45:50;;;;;;;3.28;1.45;;;22.10;99.70;;;;;;5066589;28;20032;-61
2023/06/28 11:48:16;;;;;;;3.55;1.30;;;22.20;99.90;;;;;;5052880;28;20082;-60
2023/06/28 11:50:42;;;;;;;3.97;1.40;;;22.30;99.20;;;;;;5046046;28;20116;-59
2023/06/28 11:53:08;;;;;;;6.13;1.48;;;22.50;99.90;;;;;;5060637;28;20107;-58
2023/06/28 11:55:34;;;;;;;3.35;1.30;;;22.60;98.50;;;;;;5065641;28;20020;-59
2023/06/28 11:57:59;;;;;;;3.05;1.52;;;22.50;99.00;;;;;;5060761;28;20037;-60
2023/06/28 12:00:37;;;;;;;3.58;1.40;;;22.50;98.60;;;;;;5056041;28;20052;-60
2023/06/28 12:03:02;;;;;;;2.72;0.98;;;22.60;98.40;;;;;;5061892;28;20020;-60
2023/06/28 12:05:29;;;;;;;1.98;1.10;;;22.60;97.60;;;;;;5053273;28;20032;-60
2023/06/28 12:07:57;;;;;;;2.88;1.20;;;22.50;97.20;;;;;;5049037;28;20021;-59
2023/06/28 12:10:22;;;;;;;2.55;1.60;;;22.60;98.20;;;;;;5054844;28;20060;-59
2023/06/28 12:12:48;;;;;;;3.67;1.23;;;22.50;97.50;;;;;;5062356;28;20517;-59
2023/06/28 12:15:14;;;;;;;2.55;1.30;;;22.40;97.80;;;;;;5049145;28;20029;-61
2023/06/28 12:17:44;;;;;;;1.02;1.00;;;22.40;98.10;;;;;;5060280;28;20100;-60
2023/06/28 12:20:11;;;;;;;2.92;1.30;;;22.50;99.70;;;;;;5046283;28;20492;-60
2023/06/28 12:22:38;;;;;;;1.00;0.90;;;22.60;97.70;;;;;;5052852;28;20028;-60
2023/06/28 12:25:04;;;;;;;3.38;1.50;;;22.70;98.70;;;;;;5056108;28;20111;-59
2023/06/28 12:27:30;;;;;;;2.67;1.23;;;22.80;97.60;;;;;;5057761;28;20024;-61
2023/06/28 12:29:56;;;;;;;1.98;1.10;;;22.90;97.00;;;;;;5052676;28;20090;-58
2023/06/28 12:32:23;;;;;;;0.95;0.88;;;23.00;95.90;;;;;;5049665;28;20049;-59
2023/06/28 12:34:50;;;;;;;2.47;1.10;;;23.00;96.40;;;;;;5052031;28;20535;-60
2023/06/28 12:37:15;;;;;;;3.20;1.13;;;23.10;97.10;;;;;;5048033;28;20032;-61
2023/06/28 12:39:42;;;;;;;3.15;1.17;;;23.20;97.50;;;;;;5058584;28;20021;-60
2023/06/28 12:42:09;;;;;;;2.20;1.02;;;23.30;96.80;;;;;;5055633;28;20036;-60